Time;durP1;ratioP1;P1;durP2;ratioP2;P2;SDS_P1;SDS_P2;PMS_P1;PMS_P2;Temp;Humidity;BMP_temperature;BMP_pressure;BME280_temperature;BME280_humidity;BME280_pressure;Samples;Min_cycle;Max_cycle;Signal;HPM_P1;HPM_P2
2021/12/28 00:00:22;;;;;;;48.63;26.17;;;;;;;5.82;100.00;100199.25;4918283;29;20059;-81
2021/12/28 00:02:50;;;;;;;44.88;24.92;;;;;;;5.87;100.00;100206.66;4934089;29;20055;-81
2021/12/28 00:05:19;;;;;;;48.72;26.33;;;;;;;5.88;100.00;100211.81;4937435;29;20055;-81
2021/12/28 00:07:47;;;;;;;53.65;28.85;;;;;;;5.94;100.00;100212.69;4943384;29;20054;-81
2021/12/28 00:10:17;;;;;;;51.75;26.08;;;;;;;5.98;100.00;100205.66;4940604;29;20517;-81
2021/12/28 00:12:47;;;;;;;46.90;26.70;;;;;;;6.00;100.00;100208.09;4943902;29;20047;-81
2021/12/28 00:17:59;;;;;;;48.20;25.92;;;;;;;5.88;100.00;100205.56;4943223;29;20054;-81
2021/12/28 00:20:29;;;;;;;48.78;25.90;;;;;;;5.95;100.00;100205.38;4939964;29;20498;-81
2021/12/28 00:22:58;;;;;;;44.63;25.05;;;;;;;5.95;100.00;100210.81;4944047;29;20066;-81
2021/12/28 00:25:26;;;;;;;45.13;26.08;;;;;;;5.90;100.00;100209.66;4941813;29;20048;-81
2021/12/28 00:27:55;;;;;;;48.00;27.13;;;;;;;5.86;100.00;100213.16;4941237;29;20058;-80
2021/12/28 00:30:23;;;;;;;45.40;24.85;;;;;;;5.83;100.00;100214.50;4939686;29;20569;-81
2021/12/28 00:32:53;;;;;;;46.15;25.42;;;;;;;5.78;100.00;100206.28;4924749;29;20059;-81
2021/12/28 00:35:24;;;;;;;44.05;24.88;;;;;;;5.84;100.00;100207.97;4924466;29;20063;-81
2021/12/28 00:37:52;;;;;;;48.15;26.33;;;;;;;5.84;100.00;100199.00;4933966;29;20414;-81
2021/12/28 00:40:20;;;;;;;48.00;25.70;;;;;;;5.89;100.00;100207.19;4934283;29;20406;-81
2021/12/28 00:42:48;;;;;;;47.08;24.33;;;;;;;5.89;100.00;100205.31;4941459;29;20047;-81
2021/12/28 00:45:16;;;;;;;42.85;25.23;;;;;;;5.90;100.00;100208.84;4941786;29;20055;-81
2021/12/28 00:47:45;;;;;;;43.83;24.23;;;;;;;5.88;100.00;100195.50;4947530;29;20055;-81
2021/12/28 00:50:15;;;;;;;42.70;23.90;;;;;;;5.91;100.00;100194.16;4936759;29;20392;-81
2021/12/28 00:52:43;;;;;;;43.92;24.10;;;;;;;5.95;100.00;100198.03;4947329;29;20043;-81
2021/12/28 00:55:13;;;;;;;42.63;23.50;;;;;;;5.90;100.00;100187.94;4941785;29;20059;-81
2021/12/28 00:57:42;;;;;;;43.47;23.45;;;;;;;5.95;100.00;100189.06;4944749;29;20055;-81
2021/12/28 01:00:14;;;;;;;44.35;25.27;;;;;;;5.93;100.00;100192.03;4943041;29;20047;-81
2021/12/28 01:02:42;;;;;;;46.20;25.65;;;;;;;5.96;100.00;100186.06;4944274;29;20392;-81
2021/12/28 01:05:12;;;;;;;42.20;23.98;;;;;;;5.92;100.00;100184.97;4941682;29;20059;-81
2021/12/28 01:07:40;;;;;;;41.65;24.48;;;;;;;5.90;100.00;100187.94;4945472;29;20090;-81
2021/12/28 01:10:12;;;;;;;43.92;25.35;;;;;;;5.89;100.00;100186.31;4944920;29;20063;-81
2021/12/28 01:12:40;;;;;;;45.22;24.05;;;;;;;5.88;100.00;100195.50;4944072;29;20047;-81
2021/12/28 01:15:10;;;;;;;39.97;23.05;;;;;;;5.85;100.00;100196.03;4945416;29;20562;-81
2021/12/28 01:17:38;;;;;;;43.58;23.92;;;;;;;5.92;100.00;100198.56;4943752;29;20059;-81
2021/12/28 01:20:08;;;;;;;41.88;23.20;;;;;;;5.94;100.00;100198.28;4946441;29;20062;-81
2021/12/28 01:22:37;;;;;;;48.83;24.48;;;;;;;5.95;100.00;100197.22;4925703;29;20044;-81
2021/12/28 01:25:07;;;;;;;43.75;24.35;;;;;;;5.95;100.00;100205.38;4946998;29;20051;-81
2021/12/28 01:27:35;;;;;;;40.83;24.15;;;;;;;5.97;100.00;100205.91;4929163;29;20062;-81
2021/12/28 01:30:07;;;;;;;39.45;23.83;;;;;;;5.95;100.00;100206.16;4932374;29;20056;-81
2021/12/28 01:32:36;;;;;;;42.63;23.08;;;;;;;5.87;100.00;100210.16;4940950;29;20047;-81
2021/12/28 01:35:07;;;;;;;41.85;25.08;;;;;;;5.93;100.00;100205.63;4944964;29;20059;-81
2021/12/28 01:37:36;;;;;;;41.78;23.08;;;;;;;5.90;100.00;100195.25;4934046;29;20056;-81
2021/12/28 01:40:07;;;;;;;48.97;24.98;;;;;;;5.92;100.00;100206.69;4933995;29;20051;-81
2021/12/28 01:42:55;;;;;;;40.40;23.40;;;;;;;6.00;100.00;100210.81;4935130;29;20521;-81
2021/12/28 01:45:38;;;;;;;43.42;24.25;;;;;;;6.04;100.00;100217.41;4937327;29;20047;-81
2021/12/28 01:48:08;;;;;;;38.20;22.63;;;;;;;5.99;100.00;100215.44;4937865;29;20044;-81
2021/12/28 01:50:37;;;;;;;40.97;23.38;;;;;;;5.95;100.00;100213.50;4937245;29;20059;-81
2021/12/28 01:53:24;;;;;;;38.60;22.33;;;;;;;6.00;100.00;100214.38;4937573;29;20051;-81
2021/12/28 01:55:56;;;;;;;42.35;23.50;;;;;;;5.94;100.00;100225.44;4931036;29;20040;-81
2021/12/28 01:58:24;;;;;;;42.90;23.58;;;;;;;5.94;100.00;100222.72;4937501;29;20040;-81
2021/12/28 02:00:55;;;;;;;39.13;23.13;;;;;;;6.02;100.00;100216.84;4936795;29;20054;-80
2021/12/28 02:03:25;;;;;;;42.00;23.48;;;;;;;6.05;100.00;100227.19;4937683;29;20074;-81
2021/12/28 02:05:53;;;;;;;44.00;25.58;;;;;;;6.10;100.00;100224.53;4936744;29;20063;-81
2021/12/28 02:08:21;;;;;;;41.38;22.50;;;;;;;6.04;100.00;100220.13;4937137;29;20055;-80
2021/12/28 02:10:51;;;;;;;42.90;23.48;;;;;;;5.94;100.00;100220.00;4937382;29;20055;-81
2021/12/28 02:13:21;;;;;;;38.70;23.60;;;;;;;5.91;100.00;100219.44;4936761;29;20502;-81
2021/12/28 02:15:50;;;;;;;42.60;24.25;;;;;;;5.91;100.00;100210.47;4937338;29;20057;-81
2021/12/28 02:18:20;;;;;;;43.58;24.05;;;;;;;5.91;100.00;100210.47;4936932;29;20402;-81
2021/12/28 02:20:49;;;;;;;38.20;21.98;;;;;;;5.90;100.00;100215.09;4936778;29;20056;-81
2021/12/28 02:23:17;;;;;;;46.53;24.48;;;;;;;5.87;100.00;100209.38;4924164;29;20538;-81
2021/12/28 02:25:46;;;;;;;41.53;24.35;;;;;;;5.88;100.00;100217.22;4936465;29;20059;-81
2021/12/28 02:28:15;;;;;;;37.15;22.52;;;;;;;5.87;100.00;100215.59;4919926;29;20059;-80
2021/12/28 02:30:47;;;;;;;42.13;22.80;;;;;;;5.88;100.00;100208.28;4937189;29;20048;-81
2021/12/28 02:33:15;;;;;;;40.50;22.67;;;;;;;6.00;100.00;100213.53;4936495;29;20051;-81
2021/12/28 02:35:43;;;;;;;42.42;23.45;;;;;;;6.03;100.00;100208.44;4936430;29;20395;-81
2021/12/28 02:38:13;;;;;;;42.20;23.25;;;;;;;6.04;100.00;100206.53;4936352;29;20055;-80
2021/12/28 02:40:43;;;;;;;40.65;23.42;;;;;;;5.96;100.00;100202.38;4936246;29;20043;-81
2021/12/28 02:43:14;;;;;;;38.45;21.98;;;;;;;6.05;100.00;100205.47;4936771;29;20067;-81
2021/12/28 02:45:54;;;;;;;44.05;24.85;;;;;;;6.18;100.00;100198.78;4936657;29;20066;-80
2021/12/28 02:48:23;;;;;;;40.17;22.67;;;;;;;6.17;100.00;100187.09;4935957;29;20414;-81
2021/12/28 02:50:56;;;;;;;43.60;24.17;;;;;;;6.13;100.00;100175.13;4936273;29;20128;-81
2021/12/28 02:53:25;;;;;;;41.63;23.95;;;;;;;6.07;100.00;100169.91;4936305;29;20399;-80
2021/12/28 02:55:55;;;;;;;41.05;22.60;;;;;;;6.21;100.00;100157.50;4935177;29;20055;-81
2021/12/28 02:58:33;;;;;;;41.53;24.42;;;;;;;6.21;100.00;100149.34;4936647;29;20044;-81
2021/12/28 03:01:07;;;;;;;43.95;25.38;;;;;;;6.14;100.00;100146.03;4936182;29;20372;-81
2021/12/28 03:03:37;;;;;;;43.90;25.23;;;;;;;6.14;100.00;100144.16;4936222;29;20059;-81
2021/12/28 03:06:08;;;;;;;42.53;24.42;;;;;;;6.17;100.00;100124.59;4935777;29;20411;-81
2021/12/28 03:08:39;;;;;;;42.40;24.48;;;;;;;6.16;100.00;100114.81;4935813;29;20048;-81
2021/12/28 03:11:08;;;;;;;42.15;24.90;;;;;;;6.16;100.00;100119.44;4935732;29;20051;-81
2021/12/28 03:13:39;;;;;;;44.15;24.30;;;;;;;6.07;100.00;100115.56;4936106;29;20063;-81
2021/12/28 03:16:09;;;;;;;44.78;24.65;;;;;;;5.99;100.00;100119.53;4935665;29;20044;-81
2021/12/28 03:18:37;;;;;;;40.65;24.10;;;;;;;5.96;100.00;100122.81;4935084;29;20063;-81
2021/12/28 03:21:08;;;;;;;40.55;24.95;;;;;;;5.94;100.00;100112.19;4935916;29;20055;-80
2021/12/28 03:23:37;;;;;;;42.70;25.00;;;;;;;5.94;100.00;100108.63;4918973;29;20051;-81
2021/12/28 03:26:06;;;;;;;42.70;23.85;;;;;;;5.92;100.00;100101.56;4935379;29;20051;-80
2021/12/28 03:28:38;;;;;;;40.10;23.02;;;;;;;5.89;100.00;100109.44;4935300;29;20492;-80
2021/12/28 03:31:10;;;;;;;39.80;22.85;;;;;;;5.87;100.00;100106.16;4935571;29;20055;-81
2021/12/28 03:33:40;;;;;;;41.53;25.13;;;;;;;5.88;100.00;100107.81;4935043;29;20043;-81
2021/12/28 03:36:09;;;;;;;41.45;23.40;;;;;;;5.90;100.00;100100.19;4935972;29;20395;-81
2021/12/28 03:38:39;;;;;;;39.75;22.80;;;;;;;6.04;100.00;100100.59;4934801;29;20063;-81
2021/12/28 03:41:08;;;;;;;41.13;24.27;;;;;;;6.11;100.00;100094.94;4935566;29;20056;-81
2021/12/28 03:43:40;;;;;;;45.05;24.30;;;;;;;6.03;100.00;100083.47;4935648;29;20052;-81
2021/12/28 03:46:09;;;;;;;43.88;24.70;;;;;;;5.98;100.00;100086.16;4935404;29;20056;-81
2021/12/28 03:48:38;;;;;;;43.38;25.40;;;;;;;5.98;100.00;100097.00;4935235;29;20498;-81
2021/12/28 03:51:06;;;;;;;47.35;24.30;;;;;;;6.00;100.00;100103.00;4935301;29;20055;-81
2021/12/28 03:53:35;;;;;;;47.97;25.15;;;;;;;5.90;100.00;100101.03;4935326;29;20062;-81
2021/12/28 03:56:07;;;;;;;40.50;23.67;;;;;;;5.88;100.00;100103.16;4922705;29;20048;-81
2021/12/28 03:58:40;;;;;;;46.15;24.67;;;;;;;5.91;100.00;100113.53;4935581;29;20039;-81
2021/12/28 04:01:09;;;;;;;44.45;25.67;;;;;;;5.88;100.00;100108.59;4934883;29;20051;-81
2021/12/28 04:03:38;;;;;;;44.25;24.52;;;;;;;5.90;100.00;100124.66;4934548;29;20058;-81
2021/12/28 04:06:08;;;;;;;46.35;25.83;;;;;;;5.90;100.00;100128.19;4933905;29;20058;-81
2021/12/28 04:08:40;;;;;;;44.00;25.98;;;;;;;6.02;100.00;100124.47;4935428;29;20395;-81
2021/12/28 04:13:48;;;;;;;48.15;24.73;;;;;;;5.98;100.00;100134.22;4934791;29;20120;-81
2021/12/28 04:16:18;;;;;;;46.47;25.35;;;;;;;5.91;100.00;100129.81;4935013;29;20044;-81
2021/12/28 04:18:46;;;;;;;43.05;24.45;;;;;;;5.94;100.00;100127.66;4935083;29;20039;-81
2021/12/28 04:21:15;;;;;;;44.13;24.35;;;;;;;5.90;100.00;100128.19;4934891;29;20052;-81
2021/12/28 04:23:43;;;;;;;46.67;25.73;;;;;;;5.95;100.00;100140.19;4918082;29;20051;-80
2021/12/28 04:26:12;;;;;;;44.78;25.13;;;;;;;5.96;100.00;100141.81;4934513;29;20048;-81
2021/12/28 04:28:40;;;;;;;46.80;25.63;;;;;;;5.93;100.00;100154.00;4934248;29;20056;-81
2021/12/28 04:31:09;;;;;;;48.15;25.67;;;;;;;5.90;100.00;100155.34;4934439;29;20059;-81
2021/12/28 04:33:38;;;;;;;44.55;25.17;;;;;;;5.90;100.00;100166.22;4934852;29;20075;-81
2021/12/28 04:36:12;;;;;;;45.80;26.45;;;;;;;5.95;100.00;100156.47;4934351;29;20056;-81
2021/12/28 04:38:42;;;;;;;45.75;26.13;;;;;;;5.92;100.00;100163.25;4934248;29;20047;-81
2021/12/28 04:41:12;;;;;;;42.30;24.13;;;;;;;5.87;100.00;100172.16;4934638;29;20055;-81
2021/12/28 04:43:40;;;;;;;46.45;25.75;;;;;;;5.91;100.00;100180.59;4932859;29;20047;-81
2021/12/28 04:46:08;;;;;;;44.45;24.45;;;;;;;5.87;100.00;100188.44;4934891;29;20055;-81
2021/12/28 04:48:36;;;;;;;45.60;24.95;;;;;;;5.98;100.00;100188.53;4934697;29;20052;-81
2021/12/28 04:51:05;;;;;;;43.08;24.63;;;;;;;5.95;100.00;100172.78;4934981;29;20048;-80
2021/12/28 04:53:33;;;;;;;44.42;25.63;;;;;;;5.95;100.00;100164.63;4934482;29;20503;-81
2021/12/28 04:56:02;;;;;;;45.58;24.52;;;;;;;5.91;100.00;100151.56;4934300;29;20056;-81
2021/12/28 04:58:30;;;;;;;41.00;24.08;;;;;;;5.87;100.00;100136.84;4934276;29;20052;-82
2021/12/28 05:00:58;;;;;;;37.85;22.38;;;;;;;5.84;100.00;100133.81;4933876;29;20052;-81
2021/12/28 05:03:26;;;;;;;42.33;23.15;;;;;;;5.83;100.00;100134.91;4934448;29;20063;-81
2021/12/28 05:05:54;;;;;;;40.15;22.73;;;;;;;5.82;100.00;100131.38;4933728;29;20052;-81
2021/12/28 05:08:23;;;;;;;43.53;23.42;;;;;;;5.81;100.00;100145.22;4934348;29;20052;-81
2021/12/28 05:10:52;;;;;;;38.08;22.50;;;;;;;5.85;100.00;100140.88;4934234;29;20040;-81
2021/12/28 05:13:21;;;;;;;40.63;21.92;;;;;;;5.89;100.00;100151.00;4934320;29;20510;-81
2021/12/28 05:15:50;;;;;;;41.85;22.45;;;;;;;5.90;100.00;100149.09;4934022;29;20048;-81
2021/12/28 05:18:19;;;;;;;39.70;21.40;;;;;;;5.94;100.00;100160.25;4937970;29;20066;-81
2021/12/28 05:20:47;;;;;;;37.05;21.10;;;;;;;5.94;100.00;100143.94;4937826;29;20054;-81
2021/12/28 05:23:16;;;;;;;37.72;21.55;;;;;;;5.96;100.00;100142.63;4937918;29;20047;-81
2021/12/28 05:25:44;;;;;;;39.67;22.80;;;;;;;6.00;100.00;100146.47;4937914;29;20490;-81
2021/12/28 05:28:12;;;;;;;38.88;22.83;;;;;;;5.98;100.00;100147.78;4937985;29;20051;-81
2021/12/28 05:30:41;;;;;;;37.42;21.52;;;;;;;6.02;100.00;100148.91;4938002;29;20048;-81
2021/12/28 05:33:09;;;;;;;41.42;22.90;;;;;;;6.05;100.00;100151.13;4938000;29;20048;-81
2021/12/28 05:35:37;;;;;;;44.88;23.65;;;;;;;5.98;100.00;100155.94;4936282;29;20052;-81
2021/12/28 05:38:05;;;;;;;43.10;23.63;;;;;;;6.00;100.00;100160.03;4937682;29;20055;-81
2021/12/28 05:40:33;;;;;;;44.28;23.50;;;;;;;6.01;100.00;100160.88;4937079;29;20051;-80
2021/12/28 05:43:00;;;;;;;44.40;24.83;;;;;;;5.97;100.00;100160.53;4937500;29;20048;-80
2021/12/28 05:45:28;;;;;;;42.42;23.58;;;;;;;5.92;100.00;100144.22;4937635;29;20040;-80
2021/12/28 05:47:57;;;;;;;40.40;22.20;;;;;;;5.91;100.00;100143.41;4937714;29;20051;-79
2021/12/28 05:50:25;;;;;;;42.83;23.42;;;;;;;5.95;100.00;100137.47;4936975;29;20503;-80
2021/12/28 05:52:54;;;;;;;44.63;23.13;;;;;;;5.89;100.00;100137.41;4937152;29;20059;-80
2021/12/28 05:55:22;;;;;;;41.92;24.02;;;;;;;6.02;100.00;100136.16;4936474;29;20058;-80
2021/12/28 05:57:50;;;;;;;40.92;22.70;;;;;;;5.97;100.00;100121.72;4937349;29;20430;-80
2021/12/28 06:00:18;;;;;;;46.42;23.00;;;;;;;5.91;100.00;100135.25;4919950;29;20055;-80
2021/12/28 06:02:46;;;;;;;45.05;22.98;;;;;;;5.92;100.00;100136.88;4936501;29;20055;-79
2021/12/28 06:05:14;;;;;;;41.97;22.33;;;;;;;5.92;100.00;100133.38;4936265;29;20048;-79
2021/12/28 06:07:42;;;;;;;40.90;22.88;;;;;;;5.89;100.00;100126.56;4936958;29;20048;-79
2021/12/28 06:10:10;;;;;;;46.80;24.67;;;;;;;5.97;100.00;100127.94;4935507;29;20055;-80
2021/12/28 06:12:39;;;;;;;42.42;22.92;;;;;;;5.97;100.00;100138.81;4930870;29;20051;-78
2021/12/28 06:15:07;;;;;;;43.67;21.55;;;;;;;5.89;100.00;100131.16;4939572;29;20050;-80
2021/12/28 06:17:36;;;;;;;40.92;22.60;;;;;;;5.94;100.00;100135.81;4936478;29;20051;-79
2021/12/28 06:20:05;;;;;;;41.38;23.50;;;;;;;5.91;100.00;100146.13;4936336;29;20052;-81
2021/12/28 06:22:33;;;;;;;48.53;25.88;;;;;;;5.89;100.00;100150.16;4936146;29;20058;-80
2021/12/28 06:25:02;;;;;;;46.22;24.20;;;;;;;5.91;100.00;100150.72;4935863;29;20059;-80
2021/12/28 06:27:30;;;;;;;42.40;24.08;;;;;;;6.03;100.00;100145.94;4935885;29;20048;-80
2021/12/28 06:29:58;;;;;;;48.85;24.20;;;;;;;6.00;100.00;100146.47;4936171;29;20067;-80
2021/12/28 06:32:26;;;;;;;47.65;23.98;;;;;;;6.00;100.00;100142.91;4936012;29;20054;-80
2021/12/28 06:34:54;;;;;;;48.15;25.92;;;;;;;6.02;100.00;100147.03;4937321;29;20036;-80
2021/12/28 06:37:22;;;;;;;51.88;25.58;;;;;;;5.98;100.00;100150.50;4932967;29;20052;-80
2021/12/28 06:39:50;;;;;;;47.63;25.20;;;;;;;6.03;100.00;100143.25;4935687;29;20051;-80
2021/12/28 06:42:18;;;;;;;44.58;24.42;;;;;;;6.08;100.00;100150.63;4935965;29;20106;-80
2021/12/28 06:44:47;;;;;;;48.47;25.63;;;;;;;6.26;100.00;100148.56;4902635;29;20048;-80
2021/12/28 06:47:15;;;;;;;45.40;24.88;;;;;;;6.26;100.00;100148.56;4919024;29;20048;-81
2021/12/28 06:49:45;;;;;;;48.92;24.92;;;;;;;6.14;100.00;100146.03;4935950;29;20064;-81
2021/12/28 06:52:14;;;;;;;50.50;25.85;;;;;;;6.15;100.00;100162.09;4935348;29;20133;-80
2021/12/28 06:54:44;;;;;;;48.10;25.35;;;;;;;6.04;100.00;100171.22;4935989;29;20048;-81
2021/12/28 06:57:12;;;;;;;51.53;24.52;;;;;;;6.06;100.00;100163.63;4935607;29;20059;-81
2021/12/28 06:59:45;;;;;;;46.55;26.17;;;;;;;6.10;100.00;100164.75;4935519;29;20054;-80
2021/12/28 07:02:15;;;;;;;51.57;26.40;;;;;;;6.13;100.00;100169.69;4935853;29;20410;-81
2021/12/28 07:04:44;;;;;;;51.67;27.50;;;;;;;6.23;100.00;100168.09;4935686;29;20506;-80
2021/12/28 07:07:13;;;;;;;52.70;27.92;;;;;;;6.17;100.00;100170.78;4936240;29;20391;-80
2021/12/28 07:09:41;;;;;;;51.53;26.08;;;;;;;6.11;100.00;100160.97;4935256;29;20048;-81
2021/12/28 07:12:10;;;;;;;53.58;25.80;;;;;;;6.03;100.00;100175.03;4935021;29;20051;-80
2021/12/28 07:14:38;;;;;;;49.78;27.50;;;;;;;6.03;100.00;100166.88;4935147;29;20058;-81
2021/12/28 07:17:06;;;;;;;53.20;27.38;;;;;;;6.19;100.00;100167.81;4935702;29;20063;-80
2021/12/28 07:19:35;;;;;;;48.63;26.38;;;;;;;6.09;100.00;100171.28;4934899;29;20512;-80
2021/12/28 07:22:03;;;;;;;52.65;27.10;;;;;;;6.14;100.00;100176.75;4935254;29;20052;-80
2021/12/28 07:24:31;;;;;;;50.92;26.17;;;;;;;6.12;100.00;100168.03;4933849;29;20048;-80
2021/12/28 07:26:59;;;;;;;52.97;26.63;;;;;;;6.11;100.00;100177.25;4935344;29;20048;-79
2021/12/28 07:29:27;;;;;;;56.80;27.52;;;;;;;6.08;100.00;100179.69;4935505;29;20043;-79
2021/12/28 07:31:55;;;;;;;53.35;27.38;;;;;;;6.26;100.00;100186.63;4935215;29;20059;-80
2021/12/28 07:34:23;;;;;;;48.70;26.17;;;;;;;6.15;100.00;100196.56;4935391;29;20071;-81
2021/12/28 07:36:51;;;;;;;54.63;27.58;;;;;;;6.13;100.00;100213.16;4889310;29;20499;-80
2021/12/28 07:39:19;;;;;;;52.47;27.13;;;;;;;6.28;100.00;100209.75;4920123;29;20137;-80
2021/12/28 07:41:48;;;;;;;54.75;26.42;;;;;;;6.24;100.00;100215.94;4946164;29;20063;-80
2021/12/28 07:44:16;;;;;;;53.55;27.27;;;;;;;6.31;100.00;100216.56;4934629;29;20047;-81
2021/12/28 07:46:44;;;;;;;53.58;27.00;;;;;;;6.32;100.00;100216.28;4950493;29;20051;-81
2021/12/28 07:49:12;;;;;;;57.72;28.63;;;;;;;6.31;100.00;100208.41;4950925;29;20055;-82
2021/12/28 07:51:40;;;;;;;51.75;28.65;;;;;;;6.30;100.00;100204.84;4950981;29;20070;-80
2021/12/28 07:54:09;;;;;;;57.60;30.35;;;;;;;6.26;100.00;100213.78;4949749;29;20055;-80
2021/12/28 07:56:37;;;;;;;58.85;28.98;;;;;;;6.32;100.00;100215.47;4926438;29;20052;-78
2021/12/28 07:59:06;;;;;;;56.85;28.13;;;;;;;6.40;100.00;100204.09;4932444;29;20050;-80
2021/12/28 08:01:35;;;;;;;56.65;28.08;;;;;;;6.38;100.00;100200.84;4931631;29;20066;-80
2021/12/28 08:04:04;;;;;;;57.15;28.77;;;;;;;6.33;100.00;100198.09;4935576;29;20048;-81
2021/12/28 08:06:32;;;;;;;58.80;28.80;;;;;;;6.33;100.00;100195.38;4888252;29;20051;-82
2021/12/28 08:09:01;;;;;;;57.65;27.92;;;;;;;6.30;100.00;100204.84;4916116;29;20047;-80
2021/12/28 08:11:29;;;;;;;58.25;29.27;;;;;;;6.54;100.00;100217.22;4933367;29;20071;-81
2021/12/28 08:13:57;;;;;;;53.58;28.48;;;;;;;6.58;100.00;100221.06;4931258;29;20430;-81
2021/12/28 08:16:25;;;;;;;55.95;29.52;;;;;;;6.67;100.00;100221.41;4933689;29;20387;-82
2021/12/28 08:18:53;;;;;;;57.47;30.85;;;;;;;6.76;100.00;100213.56;4932038;29;20036;-82
2021/12/28 08:21:41;;;;;;;57.67;27.60;;;;;;;6.84;100.00;100196.75;4934175;29;20044;-82
2021/12/28 08:24:09;;;;;;;54.67;27.45;;;;;;;6.91;100.00;100200.06;4934700;29;20048;-81
2021/12/28 08:26:37;;;;;;;57.35;28.95;;;;;;;6.95;100.00;100189.47;4934903;29;20062;-81
2021/12/28 08:29:06;;;;;;;54.05;28.15;;;;;;;7.16;100.00;100187.66;4922015;29;20063;-84
2021/12/28 08:31:35;;;;;;;61.63;30.33;;;;;;;7.23;100.00;100188.22;4946895;29;20058;-85
2021/12/28 08:34:04;;;;;;;54.47;28.67;;;;;;;7.16;100.00;100195.81;4934948;29;20048;-83
2021/12/28 08:36:32;;;;;;;51.47;26.48;;;;;;;7.26;100.00;100195.84;4934655;29;20039;-80
2021/12/28 08:39:00;;;;;;;55.90;29.50;;;;;;;7.30;100.00;100203.47;4933767;29;20047;-79
2021/12/28 08:41:28;;;;;;;55.28;29.35;;;;;;;7.29;100.00;100207.28;4935912;29;20052;-79
2021/12/28 08:43:56;;;;;;;53.95;28.10;;;;;;;7.20;100.00;100229.59;4943253;29;20058;-80
2021/12/28 08:46:24;;;;;;;58.75;30.10;;;;;;;7.17;100.00;100221.94;4922802;29;20059;-81
2021/12/28 08:48:52;;;;;;;55.88;29.13;;;;;;;7.15;100.00;100226.84;4942597;29;20039;-81
2021/12/28 08:51:20;;;;;;;57.28;29.73;;;;;;;7.13;100.00;100231.72;4941341;28;20055;-81
2021/12/28 08:53:48;;;;;;;60.60;29.38;;;;;;;7.01;100.00;100225.66;4941247;29;20055;-81
2021/12/28 08:56:16;;;;;;;64.00;33.03;;;;;;;7.02;100.00;100221.84;4920591;29;20157;-80
2021/12/28 08:58:44;;;;;;;63.75;30.23;;;;;;;6.93;100.00;100221.53;4933732;29;20619;-77
2021/12/28 09:01:12;;;;;;;61.70;30.20;;;;;;;7.02;100.00;100222.69;4934239;29;20051;-81
2021/12/28 09:03:41;;;;;;;57.45;29.38;;;;;;;6.90;100.00;100216.66;4931774;29;20071;-83
2021/12/28 09:06:09;;;;;;;60.33;31.02;;;;;;;6.83;100.00;100219.59;4935410;29;20397;-77
2021/12/28 09:08:37;;;;;;;62.95;31.50;;;;;;;6.69;100.00;100214.63;4935300;29;20040;-77
2021/12/28 09:11:07;;;;;;;55.20;28.90;;;;;;;6.69;100.00;100209.19;4936871;29;20043;-75
2021/12/28 09:13:37;;;;;;;62.20;31.52;;;;;;;6.99;100.00;100224.03;4934429;29;20047;-77
2021/12/28 09:16:05;;;;;;;61.45;31.00;;;;;;;7.05;100.00;100233.06;4934870;29;20047;-74
2021/12/28 09:18:33;;;;;;;56.92;28.58;;;;;;;7.15;100.00;100220.56;4933712;29;20499;-74
2021/12/28 09:21:01;;;;;;;63.35;30.23;;;;;;;7.29;100.00;100213.56;4933100;29;20054;-74
2021/12/28 09:23:30;;;;;;;62.10;31.20;;;;;;;7.43;100.00;100222.03;4935341;29;20538;-74
2021/12/28 09:26:18;;;;;;;57.53;29.70;;;;;;;7.41;100.00;100229.66;4936407;29;20046;-80
2021/12/28 09:28:46;;;;;;;56.95;29.85;;;;;;;7.49;100.00;100237.28;4934539;29;20083;-80
2021/12/28 09:31:14;;;;;;;60.47;30.77;;;;;;;7.47;100.00;100238.63;4933348;29;20059;-80
2021/12/28 09:33:43;;;;;;;63.08;31.88;;;;;;;7.39;100.00;100231.81;4915213;29;20056;-76
2021/12/28 09:36:14;;;;;;;64.57;31.75;;;;;;;7.33;100.00;100238.34;4931253;29;20399;-75
2021/12/28 09:38:44;;;;;;;66.30;31.85;;;;;;;7.39;100.00;100231.81;4933048;29;20054;-76
2021/12/28 09:41:14;;;;;;;59.30;31.45;;;;;;;7.40;100.00;100239.72;4932923;29;20063;-75
2021/12/28 09:43:42;;;;;;;60.80;29.23;;;;;;;7.33;100.00;100238.34;4934600;29;20495;-75
2021/12/28 09:46:10;;;;;;;66.55;30.10;;;;;;;7.23;100.00;100230.94;4905600;29;20051;-74
2021/12/28 09:48:39;;;;;;;64.03;32.72;;;;;;;7.09;100.00;100217.81;4917785;29;20506;-74
2021/12/28 09:51:08;;;;;;;64.40;31.10;;;;;;;7.22;100.00;100224.69;4931448;29;20047;-74
2021/12/28 09:53:38;;;;;;;63.58;32.40;;;;;;;7.24;100.00;100224.44;4932531;29;20059;-74
2021/12/28 09:56:06;;;;;;;70.63;33.40;;;;;;;7.31;100.00;100235.88;4930050;29;20514;-75
2021/12/28 09:58:39;;;;;;;70.15;34.40;;;;;;;7.30;100.00;100234.25;4934400;29;20129;-75
2021/12/28 10:01:09;;;;;;;66.85;33.95;;;;;;;7.24;100.00;100218.97;4935542;29;20058;-75
2021/12/28 10:03:38;;;;;;;70.88;33.80;;;;;;;7.15;100.00;100193.34;4918874;29;20426;-74
2021/12/28 10:06:28;;;;;;;71.68;33.30;;;;;;;7.21;100.00;100214.06;4938206;29;20078;-74
2021/12/28 10:09:22;;;;;;;70.05;33.85;;;;;;;7.33;100.00;100209.19;4936269;29;20503;-74
2021/12/28 10:11:57;;;;;;;65.18;31.80;;;;;;;7.42;100.00;100198.59;4932457;29;20487;-75
2021/12/28 10:14:28;;;;;;;70.28;34.25;;;;;;;7.37;100.00;100206.75;4919918;29;20051;-74
2021/12/28 10:17:04;;;;;;;72.35;33.50;;;;;;;7.49;100.00;100199.16;4936609;29;20052;-74
2021/12/28 10:19:35;;;;;;;64.90;32.15;;;;;;;7.58;100.00;100196.72;4934554;29;20059;-74
2021/12/28 10:22:27;;;;;;;65.95;33.40;;;;;;;7.59;100.00;100198.41;4936152;29;20058;-74
2021/12/28 10:25:09;;;;;;;72.53;34.15;;;;;;;7.68;100.00;100195.13;4936323;29;20067;-74
2021/12/28 10:27:43;;;;;;;78.20;33.75;;;;;;;7.96;100.00;100207.41;4936859;29;20051;-74
2021/12/28 10:30:12;;;;;;;71.57;34.80;;;;;;;8.04;100.00;100209.63;4936188;29;20055;-75
2021/12/28 10:32:48;;;;;;;73.75;34.90;;;;;;;8.02;100.00;100195.44;4936406;29;20055;-74
2021/12/28 10:35:24;;;;;;;70.00;33.03;;;;;;;7.86;100.00;100191.88;4919638;29;20059;-73
2021/12/28 10:37:55;;;;;;;69.00;33.22;;;;;;;7.83;100.00;100197.88;4936330;29;20067;-73
2021/12/28 10:40:28;;;;;;;71.10;34.15;;;;;;;7.79;100.00;100199.50;4936861;29;20050;-74
2021/12/28 10:43:04;;;;;;;74.40;34.00;;;;;;;7.75;100.00;100212.84;4936419;29;20055;-73
2021/12/28 10:45:40;;;;;;;69.03;31.88;;;;;;;7.78;100.00;100212.31;4937800;29;20047;-73
2021/12/28 10:48:21;;;;;;;68.57;33.63;;;;;;;7.76;100.00;100200.88;4919131;29;20387;-73
2021/12/28 10:50:54;;;;;;;68.05;32.17;;;;;;;7.90;100.00;100200.31;4935135;29;20044;-73
2021/12/28 10:53:35;;;;;;;64.63;31.38;;;;;;;7.79;100.00;100208.47;4933264;29;20043;-73
2021/12/28 10:56:08;;;;;;;65.82;33.55;;;;;;;7.90;100.00;100198.44;4935185;29;20056;-73
2021/12/28 10:58:47;;;;;;;65.18;32.95;;;;;;;7.90;100.00;100195.72;4936666;29;20047;-73
2021/12/28 11:01:26;;;;;;;63.20;31.55;;;;;;;7.96;100.00;100196.50;4937292;29;20056;-74
2021/12/28 11:04:05;;;;;;;65.07;30.75;;;;;;;8.08;100.00;100193.53;4936414;29;20059;-72
2021/12/28 11:06:47;;;;;;;58.42;30.10;;;;;;;8.24;100.00;100199.78;4934117;29;20051;-73
2021/12/28 11:09:22;;;;;;;54.60;28.73;;;;;;;8.02;100.00;100181.00;4935883;29;20500;-72
2021/12/28 11:11:55;;;;;;;55.40;28.98;;;;;;;8.07;100.00;100181.81;4918222;29;20403;-73
2021/12/28 11:14:27;;;;;;;51.08;27.95;;;;;;;8.37;100.00;100183.97;4934266;29;20043;-73
2021/12/28 11:17:00;;;;;;;47.90;27.55;;;;;;;8.37;100.00;100183.97;4936032;29;20055;-73
2021/12/28 11:19:31;;;;;;;53.67;27.70;;;;;;;8.39;100.00;100174.44;4947526;29;20043;-75
2021/12/28 11:22:06;;;;;;;51.38;26.08;;;;;;;8.29;100.00;100164.34;4944700;29;20402;-73
2021/12/28 11:24:53;;;;;;;46.53;25.60;;;;;;;8.30;100.00;100163.25;4931279;29;20055;-74
2021/12/28 11:27:27;;;;;;;47.60;25.40;;;;;;;8.32;100.00;100166.50;4937021;29;20517;-76